Time;durP1;ratioP1;P1;durP2;ratioP2;P2;SDS_P1;SDS_P2;PMS_P1;PMS_P2;Temp;Humidity;BMP_temperature;BMP_pressure;BME280_temperature;BME280_humidity;BME280_pressure;Samples;Min_cycle;Max_cycle;Signal;HPM_P1;HPM_P2
2024/01/17 00:01:58;;;;;;;10.57;4.50;;;-0.10;99.90;;;;;;5078198;28;20047;-64
2024/01/17 00:04:24;;;;;;;9.05;4.68;;;0.00;99.90;;;;;;5079624;28;20043;-65
2024/01/17 00:06:50;;;;;;;9.35;4.40;;;-0.10;99.90;;;;;;5080829;28;20498;-65
2024/01/17 00:09:16;;;;;;;7.80;4.50;;;-0.10;99.90;;;;;;5061888;28;20461;-67
2024/01/17 00:11:42;;;;;;;8.52;4.88;;;-0.10;99.90;;;;;;5081747;28;20039;-64
2024/01/17 00:14:08;;;;;;;7.93;5.35;;;-0.10;99.90;;;;;;5080341;28;20109;-63
2024/01/17 00:16:34;;;;;;;10.00;5.25;;;-0.10;99.90;;;;;;5063907;28;20090;-63
2024/01/17 00:19:00;;;;;;;9.52;5.22;;;-0.10;99.90;;;;;;5080408;28;20071;-66
2024/01/17 00:21:25;;;;;;;8.63;4.70;;;-0.10;99.90;;;;;;5082058;28;20044;-64
2024/01/17 00:23:51;;;;;;;10.45;5.10;;;-0.10;99.90;;;;;;5080523;28;20043;-63
2024/01/17 00:26:17;;;;;;;9.50;5.03;;;-0.10;99.90;;;;;;5079869;28;20052;-64
2024/01/17 00:28:42;;;;;;;11.80;5.75;;;-0.10;99.90;;;;;;5080661;28;20047;-66
2024/01/17 00:31:08;;;;;;;7.13;4.90;;;-0.10;99.90;;;;;;5081760;28;20072;-64
2024/01/17 00:33:34;;;;;;;10.57;5.28;;;-0.10;99.90;;;;;;5082632;28;20047;-63
2024/01/17 00:36:00;;;;;;;10.93;5.50;;;0.00;99.90;;;;;;5079256;28;20503;-64
2024/01/17 00:38:25;;;;;;;11.05;5.38;;;0.00;99.90;;;;;;5078963;28;20043;-65
2024/01/17 00:40:51;;;;;;;10.55;5.30;;;-0.10;99.90;;;;;;5080009;28;20040;-63
2024/01/17 00:43:17;;;;;;;12.88;5.32;;;-0.10;99.90;;;;;;5077948;28;20070;-64
2024/01/17 00:45:44;;;;;;;12.13;6.50;;;-0.10;99.90;;;;;;5081046;28;20081;-64
2024/01/17 00:48:10;;;;;;;9.75;5.47;;;-0.10;99.90;;;;;;5079486;28;20044;-63
2024/01/17 00:50:36;;;;;;;9.07;5.80;;;-0.10;99.90;;;;;;5081778;28;20515;-66
2024/01/17 00:53:01;;;;;;;8.10;5.50;;;-0.10;99.90;;;;;;5081455;28;20043;-63
2024/01/17 00:55:27;;;;;;;10.82;6.35;;;-0.20;99.90;;;;;;5080035;28;20491;-64
2024/01/17 00:57:52;;;;;;;11.77;6.32;;;-0.20;99.90;;;;;;5080125;28;20051;-64
2024/01/17 01:00:18;;;;;;;8.75;5.82;;;-0.20;99.90;;;;;;5079757;28;20044;-64
2024/01/17 01:02:44;;;;;;;11.68;5.80;;;-0.20;99.90;;;;;;5081141;28;20177;-64
2024/01/17 01:05:11;;;;;;;13.13;6.32;;;-0.20;99.90;;;;;;5081630;28;20043;-66
2024/01/17 01:07:37;;;;;;;13.15;6.25;;;-0.20;99.90;;;;;;5081625;28;20040;-64
2024/01/17 01:10:03;;;;;;;12.50;6.47;;;-0.30;99.90;;;;;;5080347;28;20482;-66
2024/01/17 01:12:29;;;;;;;10.77;6.35;;;-0.30;99.90;;;;;;5079462;28;20052;-63
2024/01/17 01:14:55;;;;;;;12.85;6.88;;;-0.30;99.90;;;;;;5078724;28;20044;-62
2024/01/17 01:17:20;;;;;;;11.13;6.55;;;-0.30;99.90;;;;;;5079058;28;20036;-63
2024/01/17 01:19:46;;;;;;;11.32;6.70;;;-0.30;99.90;;;;;;5078866;28;20040;-65
2024/01/17 01:22:11;;;;;;;12.30;7.57;;;-0.30;99.90;;;;;;5078950;28;20036;-63
2024/01/17 01:24:37;;;;;;;12.00;6.85;;;-0.30;99.90;;;;;;5081235;28;20124;-64
2024/01/17 01:27:03;;;;;;;12.50;6.97;;;-0.40;99.90;;;;;;5080726;28;20028;-66
2024/01/17 01:29:28;;;;;;;10.13;6.65;;;-0.40;99.90;;;;;;5080156;28;20093;-62
2024/01/17 01:31:54;;;;;;;12.63;6.93;;;-0.30;99.90;;;;;;5081608;28;20050;-66
2024/01/17 01:34:20;;;;;;;10.70;6.90;;;-0.30;99.90;;;;;;5078482;28;20071;-62
2024/01/17 01:36:45;;;;;;;12.27;7.35;;;-0.30;99.90;;;;;;5062363;28;20115;-63
2024/01/17 01:39:11;;;;;;;12.15;6.90;;;-0.40;99.90;;;;;;5079552;28;20047;-65
2024/01/17 01:41:37;;;;;;;11.68;6.88;;;-0.40;99.90;;;;;;5080084;28;20051;-64
2024/01/17 01:44:02;;;;;;;14.65;7.55;;;-0.40;99.90;;;;;;5080305;28;20040;-64
2024/01/17 01:46:29;;;;;;;11.02;7.20;;;-0.40;99.90;;;;;;5078840;28;20388;-66
2024/01/17 01:48:57;;;;;;;12.73;7.30;;;-0.40;99.90;;;;;;5078251;28;20040;-65
2024/01/17 01:51:24;;;;;;;13.80;7.40;;;-0.40;99.90;;;;;;5076354;28;20055;-65
2024/01/17 01:53:53;;;;;;;10.82;7.60;;;-0.40;99.90;;;;;;5078128;28;20109;-66
2024/01/17 01:56:22;;;;;;;14.52;7.63;;;-0.40;99.90;;;;;;5061454;28;20087;-66
2024/01/17 01:58:49;;;;;;;13.70;7.80;;;-0.40;99.90;;;;;;5080495;28;20036;-66
2024/01/17 02:01:15;;;;;;;11.15;7.85;;;-0.50;99.90;;;;;;5079607;28;20036;-62
2024/01/17 02:03:43;;;;;;;13.00;8.48;;;-0.40;99.90;;;;;;5079477;28;20122;-64
2024/01/17 02:06:12;;;;;;;11.77;8.27;;;-0.40;99.90;;;;;;5079717;28;20039;-66
2024/01/17 02:08:37;;;;;;;12.88;8.38;;;-0.40;99.90;;;;;;5077541;28;20443;-66
2024/01/17 02:11:03;;;;;;;12.38;8.10;;;-0.50;99.90;;;;;;5081620;28;20159;-63
2024/01/17 02:13:29;;;;;;;14.40;8.55;;;-0.50;99.90;;;;;;5082781;28;20048;-62
2024/01/17 02:15:55;;;;;;;11.38;7.75;;;-0.40;99.90;;;;;;5084112;28;20036;-64
2024/01/17 02:18:21;;;;;;;16.10;8.88;;;-0.50;99.90;;;;;;5066721;28;20044;-64
2024/01/17 02:20:47;;;;;;;11.95;7.75;;;-0.40;99.90;;;;;;5079899;28;20056;-62
2024/01/17 02:23:29;;;;;;;13.88;8.25;;;-0.40;99.90;;;;;;5083547;28;20043;-62
2024/01/17 02:25:56;;;;;;;12.38;8.05;;;-0.40;99.90;;;;;;5065772;28;20071;-63
2024/01/17 02:28:23;;;;;;;13.27;8.50;;;-0.40;99.90;;;;;;5083017;28;20028;-63
2024/01/17 02:30:49;;;;;;;15.20;8.50;;;-0.40;99.90;;;;;;5082020;28;20101;-64
2024/01/17 02:33:15;;;;;;;12.13;8.02;;;-0.40;99.90;;;;;;5084635;28;20069;-63
2024/01/17 02:35:41;;;;;;;10.85;7.97;;;-0.40;99.90;;;;;;5081975;28;20051;-66
2024/01/17 02:38:07;;;;;;;16.83;9.07;;;-0.40;99.90;;;;;;5082479;28;20062;-62
2024/01/17 02:40:32;;;;;;;13.50;8.68;;;-0.40;99.90;;;;;;5083409;28;20047;-64
2024/01/17 02:42:58;;;;;;;11.30;7.82;;;-0.40;99.90;;;;;;5081779;28;20063;-62
2024/01/17 02:45:24;;;;;;;12.20;7.95;;;-0.40;99.90;;;;;;5082480;28;20471;-63
2024/01/17 02:47:49;;;;;;;16.38;8.45;;;-0.40;99.90;;;;;;5082011;28;20053;-63
2024/01/17 02:50:15;;;;;;;15.82;8.65;;;-0.40;99.90;;;;;;5084327;28;20036;-66
2024/01/17 02:52:44;;;;;;;12.70;8.93;;;-0.40;99.90;;;;;;5082431;28;20528;-66
2024/01/17 02:55:13;;;;;;;15.18;8.93;;;-0.40;99.90;;;;;;5079572;28;20046;-64
2024/01/17 02:57:39;;;;;;;13.13;8.82;;;-0.30;99.90;;;;;;5081130;28;20032;-66
2024/01/17 03:00:07;;;;;;;16.13;8.00;;;-0.40;99.90;;;;;;5080531;28;20052;-64
2024/01/17 03:02:33;;;;;;;12.50;8.38;;;-0.40;99.90;;;;;;5081326;28;20040;-63
2024/01/17 03:04:59;;;;;;;12.90;8.35;;;-0.40;99.90;;;;;;5081468;28;20646;-66
2024/01/17 03:07:24;;;;;;;16.33;8.63;;;-0.40;99.90;;;;;;5082098;28;20052;-64
2024/01/17 03:09:50;;;;;;;15.07;8.05;;;-0.40;99.90;;;;;;5082227;28;20451;-62
2024/01/17 03:12:16;;;;;;;14.85;8.18;;;-0.40;99.90;;;;;;5081691;28;20044;-65
2024/01/17 03:14:41;;;;;;;12.88;8.40;;;-0.40;99.90;;;;;;5082787;28;20042;-66
2024/01/17 03:17:08;;;;;;;13.70;8.73;;;-0.40;99.90;;;;;;5063885;28;20066;-62
2024/01/17 03:19:34;;;;;;;15.30;8.70;;;-0.40;99.90;;;;;;5082981;28;20085;-62
2024/01/17 03:22:01;;;;;;;13.38;8.60;;;-0.50;99.90;;;;;;5081636;28;20060;-65
2024/01/17 03:24:27;;;;;;;14.20;8.63;;;-0.40;99.90;;;;;;5083234;28;20413;-62
2024/01/17 03:26:53;;;;;;;14.40;8.82;;;-0.50;99.90;;;;;;5079902;28;20089;-66
2024/01/17 03:29:18;;;;;;;14.52;9.30;;;-0.40;99.90;;;;;;5080698;28;20040;-65
2024/01/17 03:31:44;;;;;;;15.45;9.18;;;-0.40;99.90;;;;;;5081496;28;20040;-63
2024/01/17 03:34:10;;;;;;;13.27;8.88;;;-0.40;99.90;;;;;;5079628;28;20093;-61
2024/01/17 03:36:35;;;;;;;15.60;9.50;;;-0.40;99.90;;;;;;5081712;28;20044;-65
2024/01/17 03:39:01;;;;;;;13.48;8.75;;;-0.40;99.90;;;;;;5082769;28;20118;-64
2024/01/17 03:41:27;;;;;;;13.65;8.52;;;-0.40;99.90;;;;;;5081347;28;20048;-63
2024/01/17 03:43:53;;;;;;;16.88;8.85;;;-0.40;99.90;;;;;;5081254;28;20040;-64
2024/01/17 03:46:18;;;;;;;14.23;8.95;;;-0.40;99.90;;;;;;5082717;28;20446;-64
2024/01/17 03:48:44;;;;;;;17.25;8.85;;;-0.40;99.90;;;;;;5081995;28;20085;-65
2024/01/17 03:51:10;;;;;;;16.05;8.60;;;-0.40;99.90;;;;;;5079143;28;20775;-61
2024/01/17 03:53:35;;;;;;;13.45;9.15;;;-0.40;99.90;;;;;;5083085;28;20391;-63
2024/01/17 03:56:01;;;;;;;14.70;9.40;;;-0.40;99.90;;;;;;5064098;28;20506;-65
2024/01/17 03:58:27;;;;;;;12.60;8.30;;;-0.40;99.90;;;;;;5083192;28;20032;-65
2024/01/17 04:00:52;;;;;;;14.07;8.57;;;-0.40;99.90;;;;;;5081576;28;20036;-66
2024/01/17 04:03:18;;;;;;;13.68;8.55;;;-0.40;99.90;;;;;;5077997;28;20048;-65
2024/01/17 04:05:44;;;;;;;15.45;9.68;;;-0.40;99.90;;;;;;5079234;28;20047;-63
2024/01/17 04:08:10;;;;;;;16.70;8.60;;;-0.40;99.90;;;;;;5080409;28;20047;-64
2024/01/17 04:10:36;;;;;;;16.38;8.55;;;-0.50;99.90;;;;;;5079863;28;20047;-63
2024/01/17 04:13:02;;;;;;;12.45;8.70;;;-0.50;99.90;;;;;;5080699;28;20036;-63
2024/01/17 04:15:28;;;;;;;14.10;8.82;;;-0.50;99.90;;;;;;5081629;28;20044;-63
2024/01/17 04:17:54;;;;;;;13.40;8.70;;;-0.50;99.90;;;;;;5080185;28;20035;-66
2024/01/17 04:20:20;;;;;;;12.27;8.52;;;-0.50;99.90;;;;;;5081372;28;20427;-64
2024/01/17 04:22:46;;;;;;;15.60;8.70;;;-0.50;99.90;;;;;;5080460;28;20479;-64
2024/01/17 04:25:11;;;;;;;12.90;7.80;;;-0.50;99.90;;;;;;5081423;28;20131;-66
2024/01/17 04:27:38;;;;;;;13.70;8.32;;;-0.50;99.90;;;;;;5081243;28;20036;-62
2024/01/17 04:30:05;;;;;;;12.38;7.95;;;-0.50;99.90;;;;;;5079731;28;20035;-63
2024/01/17 04:32:34;;;;;;;11.32;7.70;;;-0.40;99.90;;;;;;5079792;28;20507;-63
2024/01/17 04:35:00;;;;;;;12.82;8.23;;;-0.40;99.90;;;;;;5081635;28;20075;-65
2024/01/17 04:37:26;;;;;;;15.88;8.93;;;-0.40;99.90;;;;;;5078026;28;20078;-63
2024/01/17 04:39:51;;;;;;;12.75;7.85;;;-0.40;99.90;;;;;;5079026;28;20044;-62
2024/01/17 04:42:17;;;;;;;15.23;8.82;;;-0.40;99.90;;;;;;5079389;28;20056;-63
2024/01/17 04:44:45;;;;;;;13.43;7.97;;;-0.40;99.90;;;;;;5080378;28;20032;-66
2024/01/17 04:47:12;;;;;;;14.88;8.50;;;-0.40;99.90;;;;;;5080536;28;20032;-64
2024/01/17 04:49:38;;;;;;;13.45;8.23;;;-0.40;99.90;;;;;;5080193;28;20058;-65
2024/01/17 04:52:04;;;;;;;12.48;8.38;;;-0.40;99.90;;;;;;5081565;28;20585;-61
2024/01/17 04:54:30;;;;;;;13.27;8.55;;;-0.50;99.90;;;;;;5078865;28;20039;-66
2024/01/17 04:56:57;;;;;;;11.40;8.25;;;-0.50;99.90;;;;;;5080517;28;20080;-63
2024/01/17 04:59:23;;;;;;;13.07;8.65;;;-0.50;99.90;;;;;;5080383;28;20047;-64
2024/01/17 05:01:48;;;;;;;13.27;8.10;;;-0.60;99.90;;;;;;5079056;28;20063;-64
2024/01/17 05:04:14;;;;;;;16.33;8.45;;;-0.60;99.90;;;;;;5079528;28;20471;-64
2024/01/17 05:06:40;;;;;;;10.07;7.65;;;-0.60;99.90;;;;;;5081001;28;20663;-65
2024/01/17 05:09:08;;;;;;;12.65;8.95;;;-0.60;99.90;;;;;;5081659;28;20044;-64
2024/01/17 05:11:34;;;;;;;14.20;8.38;;;-0.60;99.90;;;;;;5080398;28;20035;-63
2024/01/17 05:14:00;;;;;;;13.18;8.43;;;-0.60;99.90;;;;;;5079709;28;20050;-65
2024/01/17 05:16:26;;;;;;;13.85;7.88;;;-0.60;99.90;;;;;;5076734;28;20044;-63
2024/01/17 05:18:51;;;;;;;11.68;8.32;;;-0.60;99.90;;;;;;5077860;28;20063;-65
2024/01/17 05:21:17;;;;;;;14.02;8.25;;;-0.60;99.90;;;;;;5078438;28;20054;-65
2024/01/17 05:23:43;;;;;;;11.30;7.45;;;-0.60;99.90;;;;;;5078154;28;20486;-64
2024/01/17 05:26:09;;;;;;;11.95;7.80;;;-0.60;99.90;;;;;;5079639;28;20038;-66
2024/01/17 05:28:35;;;;;;;12.68;8.18;;;-0.60;99.90;;;;;;5079659;28;20083;-64
2024/01/17 05:31:01;;;;;;;14.30;8.35;;;-0.50;99.90;;;;;;5079977;28;20127;-63
2024/01/17 05:33:27;;;;;;;11.68;7.80;;;-0.50;99.90;;;;;;5079726;28;20040;-66
2024/01/17 05:35:52;;;;;;;13.07;7.68;;;-0.50;99.90;;;;;;5081292;28;20039;-65
2024/01/17 05:38:18;;;;;;;12.45;7.32;;;-0.50;99.90;;;;;;5079559;28;20598;-66
2024/01/17 05:40:43;;;;;;;12.35;7.80;;;-0.50;99.90;;;;;;5078655;28;20040;-67
2024/01/17 05:43:10;;;;;;;11.02;7.60;;;-0.50;99.90;;;;;;5080015;28;20101;-67
2024/01/17 05:45:35;;;;;;;12.90;7.30;;;-0.50;99.90;;;;;;5084122;28;20038;-63
2024/01/17 05:48:01;;;;;;;12.77;7.50;;;-0.60;99.90;;;;;;5084254;28;20479;-66
2024/01/17 05:50:27;;;;;;;11.82;7.72;;;-0.60;99.90;;;;;;5082176;28;20073;-63
2024/01/17 05:52:53;;;;;;;15.77;8.02;;;-0.70;99.90;;;;;;5085957;28;20041;-66
2024/01/17 05:55:22;;;;;;;10.98;7.68;;;-0.70;99.90;;;;;;5081962;28;20494;-65
2024/01/17 05:57:50;;;;;;;13.13;7.65;;;-0.70;99.90;;;;;;5082981;28;20085;-63
2024/01/17 06:00:18;;;;;;;12.13;8.55;;;-0.70;99.90;;;;;;5086888;28;20521;-65
2024/01/17 06:02:44;;;;;;;9.68;7.13;;;-0.80;99.90;;;;;;5080819;28;20414;-65
2024/01/17 06:05:10;;;;;;;10.10;7.93;;;-0.80;99.90;;;;;;5086072;28;20040;-63
2024/01/17 06:07:36;;;;;;;10.23;7.50;;;-0.80;99.90;;;;;;5079536;28;20048;-63
2024/01/17 06:10:03;;;;;;;10.63;7.65;;;-0.80;99.90;;;;;;5067252;28;20040;-64
2024/01/17 06:12:28;;;;;;;10.73;7.20;;;-0.80;99.90;;;;;;5084459;28;20512;-65
2024/01/17 06:14:54;;;;;;;13.85;8.20;;;-0.80;99.90;;;;;;5083189;28;20071;-64
2024/01/17 06:17:19;;;;;;;12.70;8.25;;;-0.90;99.90;;;;;;5085703;28;20036;-64
2024/01/17 06:19:45;;;;;;;13.02;7.45;;;-0.90;99.90;;;;;;5066980;28;20051;-63
2024/01/17 06:22:12;;;;;;;10.45;7.30;;;-0.90;99.90;;;;;;5086107;28;20071;-64
2024/01/17 06:24:37;;;;;;;13.70;8.10;;;-0.90;99.90;;;;;;5080974;28;20475;-64
2024/01/17 06:27:03;;;;;;;12.18;7.43;;;-0.90;99.90;;;;;;5074625;28;20047;-64
2024/01/17 06:29:30;;;;;;;13.95;7.72;;;-0.90;99.90;;;;;;5076189;28;20043;-66
2024/01/17 06:31:56;;;;;;;12.88;6.93;;;-0.90;99.90;;;;;;5073661;28;20102;-61
2024/01/17 06:34:22;;;;;;;10.65;7.30;;;-0.90;99.90;;;;;;5070294;28;20049;-66
2024/01/17 06:36:48;;;;;;;15.98;7.97;;;-1.00;99.90;;;;;;5083197;28;20040;-65
2024/01/17 06:39:16;;;;;;;10.60;7.28;;;-1.00;99.90;;;;;;5076076;28;20044;-64
2024/01/17 06:41:42;;;;;;;11.50;7.38;;;-1.10;99.90;;;;;;5072486;28;20084;-65
2024/01/17 06:44:09;;;;;;;11.85;7.30;;;-1.10;99.90;;;;;;5079702;28;20180;-64
2024/01/17 06:46:36;;;;;;;13.05;6.75;;;-1.10;99.90;;;;;;5080850;28;20131;-63
2024/01/17 06:49:02;;;;;;;13.30;7.82;;;-1.10;99.90;;;;;;5076798;28;20430;-64
2024/01/17 06:51:27;;;;;;;12.07;7.32;;;-1.10;99.90;;;;;;5075620;28;20062;-64
2024/01/17 06:53:53;;;;;;;11.90;7.20;;;-1.10;99.90;;;;;;5078908;28;20035;-65
2024/01/17 06:56:19;;;;;;;12.80;7.63;;;-1.20;99.90;;;;;;5081635;28;20457;-63
2024/01/17 06:58:44;;;;;;;13.38;7.10;;;-1.30;99.90;;;;;;5080330;28;20044;-66
2024/01/17 07:01:10;;;;;;;14.55;7.55;;;-1.30;99.90;;;;;;5077414;28;20059;-63
2024/01/17 07:03:36;;;;;;;11.00;7.43;;;-1.30;99.90;;;;;;5080649;28;20042;-64
2024/01/17 07:06:04;;;;;;;10.52;6.80;;;-1.30;99.90;;;;;;5080158;28;20070;-65
2024/01/17 07:08:30;;;;;;;10.85;7.43;;;-1.30;99.90;;;;;;5071946;28;20056;-64
2024/01/17 07:10:56;;;;;;;12.90;7.28;;;-1.40;99.90;;;;;;5071952;28;20538;-62
2024/01/17 07:13:21;;;;;;;10.82;7.15;;;-1.40;99.90;;;;;;5081394;28;20028;-64
2024/01/17 07:15:47;;;;;;;10.63;7.47;;;-1.40;99.90;;;;;;5081244;28;20044;-65
2024/01/17 07:18:12;;;;;;;13.00;6.93;;;-1.40;99.90;;;;;;5082098;28;20391;-65
2024/01/17 07:20:38;;;;;;;12.18;8.13;;;-1.40;99.90;;;;;;5081514;28;20040;-65
2024/01/17 07:23:04;;;;;;;12.30;7.32;;;-1.40;99.90;;;;;;5078059;28;20092;-63
2024/01/17 07:25:31;;;;;;;12.43;7.63;;;-1.40;99.90;;;;;;5077080;28;20079;-65
2024/01/17 07:27:56;;;;;;;13.73;7.20;;;-1.40;99.90;;;;;;5078470;28;20047;-64
2024/01/17 07:30:22;;;;;;;16.10;6.93;;;-1.40;99.90;;;;;;5077935;28;20049;-64
2024/01/17 07:32:48;;;;;;;12.02;6.95;;;-1.40;99.90;;;;;;5078738;28;20082;-62
2024/01/17 07:35:14;;;;;;;12.43;7.03;;;-1.50;99.90;;;;;;5060565;28;20052;-64
2024/01/17 07:37:40;;;;;;;12.95;6.50;;;-1.50;99.90;;;;;;5075516;28;20115;-64
2024/01/17 07:40:08;;;;;;;10.85;6.82;;;-1.50;99.90;;;;;;5078070;28;20089;-64
2024/01/17 07:42:34;;;;;;;13.52;7.00;;;-1.50;99.90;;;;;;5061683;28;20064;-65
2024/01/17 07:45:00;;;;;;;15.48;7.10;;;-1.50;99.90;;;;;;5077237;28;20161;-64
2024/01/17 07:47:25;;;;;;;10.35;6.80;;;-1.50;99.90;;;;;;5075292;28;20044;-65
2024/01/17 07:49:51;;;;;;;12.00;6.40;;;-1.50;99.90;;;;;;5081987;28;20040;-65
2024/01/17 07:52:17;;;;;;;11.13;7.57;;;-1.50;99.90;;;;;;5074357;28;20053;-63
2024/01/17 07:54:43;;;;;;;13.00;7.15;;;-1.40;99.90;;;;;;5075924;28;20142;-62
2024/01/17 07:57:08;;;;;;;12.80;6.88;;;-1.40;99.90;;;;;;5074272;28;20765;-63
2024/01/17 07:59:34;;;;;;;10.43;7.03;;;-1.40;99.90;;;;;;5075989;28;20036;-64
2024/01/17 08:02:00;;;;;;;10.82;6.95;;;-1.40;99.90;;;;;;5071412;28;20136;-62
2024/01/17 08:04:25;;;;;;;9.00;6.53;;;-1.30;99.90;;;;;;5073447;28;20054;-64
2024/01/17 08:06:51;;;;;;;12.95;7.18;;;-1.20;99.90;;;;;;5072615;28;20032;-63
2024/01/17 08:09:25;;;;;;;9.43;6.80;;;-1.20;99.90;;;;;;5072741;28;20037;-64
2024/01/17 08:11:52;;;;;;;9.40;6.72;;;-1.20;99.90;;;;;;5075529;28;20036;-65
2024/01/17 08:14:18;;;;;;;12.55;7.18;;;-1.20;99.90;;;;;;5072395;28;20127;-64
2024/01/17 08:16:45;;;;;;;10.60;6.50;;;-1.10;99.90;;;;;;5074631;28;20436;-63
2024/01/17 08:19:11;;;;;;;12.70;6.75;;;-1.10;99.90;;;;;;5074931;28;20042;-62
2024/01/17 08:21:36;;;;;;;11.70;6.47;;;-1.00;99.90;;;;;;5073217;28;20462;-64
2024/01/17 08:24:02;;;;;;;10.52;6.90;;;-1.00;99.90;;;;;;5075700;28;20059;-63
2024/01/17 08:26:28;;;;;;;12.13;7.18;;;-1.00;99.90;;;;;;5075345;28;20044;-64
2024/01/17 08:28:54;;;;;;;14.43;7.25;;;-1.00;99.90;;;;;;5075974;28;20039;-64
2024/01/17 08:31:20;;;;;;;11.73;6.80;;;-1.00;99.90;;;;;;5072238;28;20036;-65
2024/01/17 08:33:46;;;;;;;12.73;7.05;;;-1.00;99.90;;;;;;5056889;28;20388;-63
2024/01/17 08:36:14;;;;;;;15.70;8.15;;;-1.00;99.90;;;;;;5089572;28;20072;-62
2024/01/17 08:38:43;;;;;;;13.45;7.25;;;-1.00;99.90;;;;;;5073478;28;20044;-65
2024/01/17 08:41:09;;;;;;;12.00;7.30;;;-1.00;99.90;;;;;;5079200;28;20063;-62
2024/01/17 08:43:35;;;;;;;12.27;6.30;;;-1.00;99.90;;;;;;5071255;28;20442;-64
2024/01/17 08:46:01;;;;;;;12.90;7.00;;;-1.00;99.90;;;;;;5076502;28;20551;-64
2024/01/17 08:48:27;;;;;;;12.18;7.10;;;-1.00;99.90;;;;;;5077280;28;20495;-64
2024/01/17 08:50:53;;;;;;;13.23;7.28;;;-1.00;99.90;;;;;;5074612;28;20430;-64
2024/01/17 08:53:19;;;;;;;10.80;6.70;;;-1.10;99.90;;;;;;5081723;28;20065;-63
2024/01/17 08:55:45;;;;;;;11.98;7.53;;;-1.10;99.90;;;;;;5074312;28;20083;-63
2024/01/17 08:58:11;;;;;;;9.52;6.82;;;-1.00;99.90;;;;;;5074802;28;20479;-63
2024/01/17 09:00:37;;;;;;;10.80;7.30;;;-1.00;99.90;;;;;;5077429;28;20034;-63
2024/01/17 09:03:04;;;;;;;9.05;6.90;;;-1.00;99.90;;;;;;5077539;28;20037;-63
2024/01/17 09:05:30;;;;;;;14.30;8.05;;;-0.90;99.90;;;;;;5070265;28;20258;-63
2024/01/17 09:07:56;;;;;;;10.38;7.53;;;-0.90;99.90;;;;;;5079033;28;20040;-63
2024/01/17 09:10:22;;;;;;;11.13;7.00;;;-0.90;99.90;;;;;;5071200;28;20162;-63
2024/01/17 09:12:49;;;;;;;12.65;6.85;;;-0.80;99.90;;;;;;5078185;28;20567;-63
2024/01/17 09:15:14;;;;;;;10.40;6.97;;;-0.80;99.90;;;;;;5074115;28;20048;-64
2024/01/17 09:17:40;;;;;;;10.77;7.03;;;-0.80;99.90;;;;;;5074210;28;20041;-63
2024/01/17 09:20:06;;;;;;;12.70;7.20;;;-0.80;99.90;;;;;;5071580;28;20047;-63
2024/01/17 09:22:32;;;;;;;10.77;7.13;;;-0.70;99.90;;;;;;5078779;28;20384;-63
2024/01/17 09:25:01;;;;;;;10.52;7.45;;;-0.70;99.90;;;;;;5075393;28;20040;-63
2024/01/17 09:27:27;;;;;;;11.25;7.25;;;-0.70;99.90;;;;;;5074411;28;20484;-63
2024/01/17 09:29:53;;;;;;;8.98;6.65;;;-0.60;99.90;;;;;;5081284;28;20099;-63
2024/01/17 09:32:19;;;;;;;11.93;7.03;;;-0.60;99.90;;;;;;5065037;28;20572;-63
2024/01/17 09:34:47;;;;;;;11.63;7.93;;;-0.60;99.90;;;;;;5077902;28;20040;-63
2024/01/17 09:37:14;;;;;;;14.23;7.63;;;-0.50;99.90;;;;;;5080770;28;20056;-63
2024/01/17 09:39:39;;;;;;;11.65;7.22;;;-0.50;99.90;;;;;;5076045;28;20609;-64
2024/01/17 09:42:06;;;;;;;9.88;7.00;;;-0.40;99.90;;;;;;5078139;28;20043;-63
2024/01/17 09:44:33;;;;;;;12.70;7.47;;;-0.40;99.90;;;;;;5070899;28;20131;-63
2024/01/17 09:47:01;;;;;;;12.48;7.32;;;-0.30;99.90;;;;;;5081997;28;20051;-63
2024/01/17 09:49:28;;;;;;;10.80;6.70;;;-0.30;99.90;;;;;;5073510;28;20041;-63
2024/01/17 09:51:54;;;;;;;10.43;6.93;;;-0.20;99.90;;;;;;5071976;28;20040;-64
2024/01/17 09:54:24;;;;;;;9.23;6.18;;;-0.20;99.90;;;;;;5077361;28;20035;-63
2024/01/17 09:56:51;;;;;;;10.52;6.57;;;-0.30;99.90;;;;;;5076702;28;20040;-63
2024/01/17 09:59:23;;;;;;;10.95;6.95;;;-0.30;99.90;;;;;;5071694;28;20583;-64
2024/01/17 10:01:48;;;;;;;10.57;7.20;;;-0.30;99.90;;;;;;5079632;28;20048;-64
2024/01/17 10:04:15;;;;;;;10.85;7.00;;;-0.30;99.90;;;;;;5072972;28;20124;-63
2024/01/17 10:06:44;;;;;;;11.32;6.53;;;-0.30;99.90;;;;;;5073860;28;20064;-63
2024/01/17 10:09:11;;;;;;;10.98;6.72;;;-0.30;99.90;;;;;;5070610;28;20037;-63
2024/01/17 10:11:37;;;;;;;11.48;6.88;;;-0.30;99.90;;;;;;5073128;28;20039;-62
2024/01/17 10:14:03;;;;;;;10.52;6.88;;;-0.20;99.90;;;;;;5074810;28;20506;-62
2024/01/17 10:16:29;;;;;;;11.73;6.35;;;-0.20;99.90;;;;;;5077715;28;20089;-63
2024/01/17 10:18:55;;;;;;;9.27;6.80;;;-0.10;99.90;;;;;;5081519;28;20028;-62
2024/01/17 10:21:22;;;;;;;10.15;6.63;;;0.00;99.90;;;;;;5077843;28;20134;-63
2024/01/17 10:23:48;;;;;;;8.55;6.78;;;0.00;99.90;;;;;;5076786;28;20059;-63
2024/01/17 10:26:14;;;;;;;11.02;6.43;;;0.10;99.90;;;;;;5077135;28;20028;-63
2024/01/17 10:28:40;;;;;;;8.70;6.45;;;0.10;99.90;;;;;;5075040;28;20040;-63
2024/01/17 10:31:06;;;;;;;11.00;7.20;;;0.20;99.90;;;;;;5076771;28;20094;-63
2024/01/17 10:33:32;;;;;;;10.00;7.10;;;0.20;99.90;;;;;;5078302;28;20068;-63
2024/01/17 10:35:58;;;;;;;11.43;6.68;;;0.20;99.90;;;;;;5082946;28;20445;-64
2024/01/17 10:38:33;;;;;;;7.93;6.20;;;0.20;99.90;;;;;;5079333;28;20048;-63
2024/01/17 10:41:04;;;;;;;9.43;6.55;;;0.20;99.90;;;;;;5076976;28;20191;-63
2024/01/17 10:43:29;;;;;;;8.90;6.57;;;0.30;99.90;;;;;;5068898;28;20048;-64
2024/01/17 10:45:55;;;;;;;12.20;6.95;;;0.40;99.90;;;;;;5083869;28;20535;-63
2024/01/17 10:48:24;;;;;;;11.27;7.70;;;0.40;99.90;;;;;;5080550;28;20119;-63
2024/01/17 10:50:57;;;;;;;11.35;6.78;;;0.50;99.90;;;;;;5075869;28;20036;-64
2024/01/17 10:53:23;;;;;;;;;;;0.50;99.90;;;;;;5078441;28;20028;-64
2024/01/17 10:55:54;;;;;;;10.45;6.28;;;0.60;99.90;;;;;;5078631;28;19969;-63
2024/01/17 10:58:21;;;;;;;8.95;6.43;;;0.70;99.90;;;;;;5077773;28;20051;-63
2024/01/17 11:00:49;;;;;;;10.55;6.15;;;0.70;99.90;;;;;;5081641;28;20040;-63
2024/01/17 11:03:19;;;;;;;9.77;6.63;;;0.80;99.90;;;;;;5080549;28;20048;-63
2024/01/17 11:05:49;;;;;;;13.43;6.38;;;0.80;99.90;;;;;;5079384;28;20108;-62
2024/01/17 11:08:18;;;;;;;10.60;6.82;;;0.80;99.90;;;;;;5082401;28;20036;-63
2024/01/17 11:10:45;;;;;;;13.40;7.63;;;0.90;99.90;;;;;;5077928;28;20032;-62
2024/01/17 11:13:13;;;;;;;9.88;6.63;;;0.90;99.90;;;;;;5077814;28;20028;-62
2024/01/17 11:15:41;;;;;;;10.63;7.03;;;0.90;99.90;;;;;;5077851;28;20046;-62
2024/01/17 11:18:09;;;;;;;9.88;5.97;;;0.90;99.90;;;;;;5076117;28;20043;-63
2024/01/17 11:20:37;;;;;;;13.07;7.20;;;0.90;99.90;;;;;;5081315;28;20513;-63
2024/01/17 11:23:04;;;;;;;9.27;7.15;;;0.90;99.90;;;;;;5080329;28;20141;-63
2024/01/17 11:25:33;;;;;;;8.32;6.38;;;0.80;99.90;;;;;;5078002;28;20251;-63
2024/01/17 11:28:36;;;;;;;11.07;6.65;;;0.80;99.90;;;;;;5073722;28;20093;-62
2024/01/17 11:31:11;;;;;;;9.18;5.45;;;0.80;99.90;;;;;;4994251;28;20081;-63
2024/01/17 11:33:38;;;;;;;9.02;5.80;;;0.80;99.90;;;;;;4989558;28;20080;-63
2024/01/17 11:36:05;;;;;;;9.70;6.18;;;0.80;99.90;;;;;;5012565;28;20137;-63
2024/01/17 11:38:32;;;;;;;9.20;6.30;;;0.80;99.90;;;;;;4997108;28;20037;-62
2024/01/17 11:41:09;;;;;;;8.85;6.13;;;0.80;99.90;;;;;;5017305;28;20095;-63
2024/01/17 11:43:38;;;;;;;8.68;6.05;;;0.90;99.90;;;;;;5016290;28;20492;-63
2024/01/17 11:46:05;;;;;;;7.80;5.70;;;0.90;99.90;;;;;;5013426;28;20034;-62
2024/01/17 11:48:32;;;;;;;9.38;6.15;;;1.00;99.90;;;;;;5013931;28;20061;-63
2024/01/17 11:50:59;;;;;;;7.55;5.13;;;1.00;99.90;;;;;;4997353;28;20041;-63
2024/01/17 11:53:30;;;;;;;9.23;5.70;;;1.00;99.90;;;;;;5009593;28;20531;-62
2024/01/17 11:56:06;;;;;;;8.35;5.47;;;1.10;99.90;;;;;;4989472;28;20049;-63
2024/01/17 11:58:39;;;;;;;8.60;5.40;;;1.10;99.90;;;;;;4989092;28;20079;-63
2024/01/17 12:01:12;;;;;;;10.85;6.60;;;1.10;99.90;;;;;;4988851;28;20152;-62
2024/01/17 12:03:38;;;;;;;8.20;5.90;;;1.10;99.90;;;;;;4982159;28;20034;-62
2024/01/17 12:06:04;;;;;;;10.43;5.90;;;1.10;99.90;;;;;;4992179;28;20069;-64
2024/01/17 12:08:32;;;;;;;7.70;5.40;;;1.10;99.90;;;;;;5072794;28;20087;-62
2024/01/17 12:10:58;;;;;;;9.73;5.63;;;1.00;99.90;;;;;;5075375;28;20039;-63
2024/01/17 12:13:24;;;;;;;9.35;5.30;;;1.10;99.90;;;;;;5078078;28;20044;-63
2024/01/17 12:16:07;;;;;;;8.48;5.68;;;1.10;99.90;;;;;;5069768;28;20044;-63
2024/01/17 12:18:35;;;;;;;10.80;5.40;;;1.20;99.90;;;;;;5077764;28;20043;-63
2024/01/17 12:21:03;;;;;;;9.05;5.45;;;1.20;99.90;;;;;;5067288;28;20123;-62
2024/01/17 12:23:34;;;;;;;8.98;5.60;;;1.20;99.90;;;;;;5078582;28;20040;-62
2024/01/17 12:26:00;;;;;;;8.10;5.60;;;1.20;99.90;;;;;;5053975;28;20074;-63
2024/01/17 12:28:28;;;;;;;12.55;5.88;;;1.20;99.90;;;;;;5072509;28;20040;-63
2024/01/17 12:31:02;;;;;;;8.50;5.55;;;1.20;99.90;;;;;;5076548;28;20425;-62
2024/01/17 12:33:29;;;;;;;9.73;5.43;;;1.20;99.90;;;;;;5072318;28;20495;-63
2024/01/17 12:36:03;;;;;;;7.65;5.15;;;1.10;99.90;;;;;;5073279;28;20039;-62
2024/01/17 12:38:30;;;;;;;8.65;5.65;;;1.20;99.90;;;;;;5073049;28;20040;-63